createdAt,value
2019-03-09T00:00:51.255Z,3.00
2019-03-09T00:01:56.329Z,2.33
2019-03-09T00:03:01.622Z,2.42
2019-03-09T00:04:06.929Z,2.10
2019-03-09T00:05:11.988Z,2.08
2019-03-09T00:06:17.040Z,2.10
2019-03-09T00:07:22.372Z,2.75
2019-03-09T00:08:27.841Z,2.60
2019-03-09T00:09:33.193Z,2.75
2019-03-09T00:10:38.281Z,2.25
2019-03-09T00:11:43.569Z,2.10
2019-03-09T00:12:48.546Z,2.27
2019-03-09T00:13:53.301Z,2.65
2019-03-09T00:14:58.744Z,2.83
2019-03-09T00:16:03.237Z,2.75
2019-03-09T00:17:08.499Z,1.77
2019-03-09T00:18:13.760Z,2.20
2019-03-09T00:19:19.323Z,2.05
2019-03-09T00:20:24.363Z,2.75
2019-03-09T00:21:30.071Z,2.35
2019-03-09T00:22:34.756Z,2.40
2019-03-09T00:23:58.378Z,1.82
2019-03-09T00:25:10.654Z,2.62
2019-03-09T00:26:37.782Z,2.33
2019-03-09T00:27:47.381Z,2.00
2019-03-09T00:29:08.671Z,2.00
2019-03-09T00:30:34.995Z,2.15
2019-03-09T00:31:45.394Z,2.50
2019-03-09T00:32:50.649Z,2.40
2019-03-09T00:33:55.739Z,2.02
2019-03-09T00:35:00.492Z,2.60
2019-03-09T00:36:05.742Z,2.15
2019-03-09T00:37:11.011Z,1.92
2019-03-09T00:38:15.695Z,1.90
2019-03-09T00:39:20.407Z,1.98
2019-03-09T00:40:25.374Z,2.00
2019-03-09T00:41:31.222Z,2.60
2019-03-09T00:42:36.812Z,1.98
2019-03-09T00:43:42.308Z,2.02
2019-03-09T00:44:47.698Z,1.98
2019-03-09T00:45:52.976Z,2.35
2019-03-09T00:46:57.687Z,2.62
2019-03-09T00:48:02.925Z,1.95
2019-03-09T00:49:07.784Z,1.80
2019-03-09T00:50:12.802Z,2.27
2019-03-09T00:51:18.065Z,1.65
2019-03-09T00:52:23.146Z,2.27
2019-03-09T00:53:28.135Z,1.85
2019-03-09T00:54:33.728Z,2.12
2019-03-09T00:55:38.678Z,2.02
2019-03-09T00:56:43.646Z,2.30
2019-03-09T00:57:48.928Z,2.25
2019-03-09T00:58:53.889Z,1.70
2019-03-09T00:59:59.741Z,1.90
2019-03-09T01:01:04.769Z,2.20
2019-03-09T01:02:10.030Z,2.40
2019-03-09T01:03:15.022Z,1.75
2019-03-09T01:04:20.607Z,1.95
2019-03-09T01:05:25.354Z,1.90
2019-03-09T01:06:30.369Z,1.95
2019-03-09T01:07:34.828Z,2.50
2019-03-09T01:08:39.547Z,1.75
2019-03-09T01:09:44.023Z,2.10
2019-03-09T01:10:48.728Z,1.75
2019-03-09T01:11:54.041Z,2.12
2019-03-09T01:12:59.178Z,2.02
2019-03-09T01:14:04.456Z,2.10
2019-03-09T01:15:09.934Z,1.82
2019-03-09T01:16:14.621Z,2.10
2019-03-09T01:17:19.574Z,1.90
2019-03-09T01:18:24.894Z,2.10
2019-03-09T01:19:30.305Z,2.33
2019-03-09T01:20:34.794Z,2.08
2019-03-09T01:21:39.922Z,2.58
2019-03-09T01:22:45.163Z,2.00
2019-03-09T01:23:50.173Z,2.12
2019-03-09T01:24:55.238Z,1.95
2019-03-09T01:26:01.980Z,1.90
2019-03-09T01:27:07.189Z,2.25
2019-03-09T01:28:12.154Z,2.00
2019-03-09T01:29:16.863Z,1.92
2019-03-09T01:30:21.928Z,1.60
2019-03-09T01:31:27.300Z,2.00
2019-03-09T01:32:32.770Z,1.70
2019-03-09T01:33:37.778Z,2.10
2019-03-09T01:34:43.070Z,1.62
2019-03-09T01:35:47.579Z,1.85
2019-03-09T01:36:52.347Z,1.92
2019-03-09T01:37:57.335Z,1.80
2019-03-09T01:39:02.027Z,1.90
2019-03-09T01:40:08.210Z,1.60
2019-03-09T01:41:12.906Z,1.90
2019-03-09T01:42:18.237Z,1.70
2019-03-09T01:43:23.579Z,1.60
2019-03-09T01:44:28.554Z,2.00
2019-03-09T01:45:33.468Z,1.50
2019-03-09T01:46:38.439Z,1.37
2019-03-09T01:47:42.872Z,1.27
2019-03-09T01:48:47.684Z,1.70
2019-03-09T01:49:52.827Z,1.52
2019-03-09T01:50:57.862Z,1.30
2019-03-09T01:52:03.275Z,1.77
2019-03-09T01:53:08.082Z,1.40
2019-03-09T01:54:13.064Z,1.72
2019-03-09T01:55:18.052Z,1.62
2019-03-09T01:56:23.326Z,1.52
2019-03-09T01:57:27.765Z,2.05
2019-03-09T01:58:33.104Z,1.55
2019-03-09T01:59:38.093Z,1.20
2019-03-09T02:00:43.415Z,1.37
2019-03-09T02:01:48.691Z,1.55
2019-03-09T02:02:53.643Z,1.40
2019-03-09T02:03:58.631Z,1.77
2019-03-09T02:05:03.623Z,1.82
2019-03-09T02:06:08.683Z,1.55
2019-03-09T02:07:14.081Z,1.62
2019-03-09T02:08:19.093Z,1.60
2019-03-09T02:09:24.211Z,1.27
2019-03-09T02:10:29.215Z,1.42
2019-03-09T02:11:34.182Z,1.80
2019-03-09T02:12:38.886Z,2.05
2019-03-09T02:13:43.976Z,1.40
2019-03-09T02:14:48.956Z,1.40
2019-03-09T02:15:57.685Z,2.10
2019-03-09T02:17:02.388Z,1.30
2019-03-09T02:18:07.375Z,1.60
2019-03-09T02:19:12.436Z,1.60
2019-03-09T02:20:17.174Z,1.27
2019-03-09T02:21:22.743Z,1.30
2019-03-09T02:22:27.196Z,1.80
2019-03-09T02:23:32.284Z,1.40
2019-03-09T02:24:37.270Z,1.70
2019-03-09T02:25:42.840Z,1.57
2019-03-09T02:26:47.582Z,1.20
2019-03-09T02:27:52.854Z,1.40
2019-03-09T02:28:58.157Z,1.10
2019-03-09T02:30:02.983Z,1.30
2019-03-09T02:31:08.034Z,1.07
2019-03-09T02:32:13.265Z,1.50
2019-03-09T02:33:18.359Z,1.30
2019-03-09T02:34:23.710Z,1.17
2019-03-09T02:35:28.738Z,1.50
2019-03-09T02:36:33.598Z,1.20
2019-03-09T02:37:38.827Z,1.20
2019-03-09T02:38:49.081Z,1.20
2019-03-09T02:39:58.638Z,1.10
2019-03-09T02:41:03.434Z,1.05
2019-03-09T02:42:08.674Z,1.07
2019-03-09T02:43:13.968Z,1.12
2019-03-09T02:44:18.928Z,1.10
2019-03-09T02:45:24.317Z,1.30
2019-03-09T02:46:30.140Z,1.20
2019-03-09T02:47:34.823Z,1.20
2019-03-09T02:48:39.827Z,1.00
2019-03-09T02:49:45.164Z,0.90
2019-03-09T02:50:59.172Z,1.12
2019-03-09T02:52:03.864Z,1.00
2019-03-09T02:53:09.100Z,1.15
2019-03-09T02:54:13.789Z,1.10
2019-03-09T02:55:18.231Z,1.15
2019-03-09T02:56:23.258Z,1.07
2019-03-09T02:57:28.326Z,1.00
2019-03-09T02:58:33.713Z,0.98
2019-03-09T02:59:38.437Z,1.00
2019-03-09T03:00:48.414Z,1.10
2019-03-09T03:02:18.255Z,0.90
2019-03-09T03:03:23.811Z,1.15
2019-03-09T03:04:28.543Z,1.30
2019-03-09T03:05:33.586Z,1.12
2019-03-09T03:06:38.472Z,1.00
2019-03-09T03:07:43.429Z,1.30
2019-03-09T03:08:48.985Z,1.25
2019-03-09T03:09:53.473Z,1.20
2019-03-09T03:10:58.533Z,1.12
2019-03-09T03:12:03.081Z,1.20
2019-03-09T03:13:08.559Z,1.52
2019-03-09T03:14:14.121Z,1.25
2019-03-09T03:15:32.600Z,1.22
2019-03-09T03:16:38.169Z,1.40
2019-03-09T03:17:43.526Z,1.30
2019-03-09T03:18:48.507Z,1.20
2019-03-09T03:19:53.537Z,1.20
2019-03-09T03:20:58.580Z,1.65
2019-03-09T03:22:03.319Z,1.57
2019-03-09T03:23:08.082Z,1.32
2019-03-09T03:24:12.752Z,1.42
2019-03-09T03:25:17.806Z,1.50
2019-03-09T03:26:22.846Z,1.40
2019-03-09T03:27:27.987Z,1.62
2019-03-09T03:28:32.684Z,1.40
2019-03-09T03:29:37.710Z,1.67
2019-03-09T03:30:42.950Z,1.60
2019-03-09T03:31:47.935Z,1.40
2019-03-09T03:32:54.637Z,1.42
2019-03-09T03:33:59.388Z,1.45
2019-03-09T03:35:04.551Z,1.67
2019-03-09T03:36:09.518Z,1.45
2019-03-09T03:37:14.297Z,1.47
2019-03-09T03:38:19.600Z,1.95
2019-03-09T03:39:24.616Z,1.72
2019-03-09T03:40:29.929Z,2.08
2019-03-09T03:41:34.745Z,1.45
2019-03-09T03:42:39.989Z,1.70
2019-03-09T03:43:44.679Z,1.60
2019-03-09T03:44:49.676Z,1.60
2019-03-09T03:45:55.121Z,1.80
2019-03-09T03:47:00.208Z,1.87
2019-03-09T03:48:05.161Z,1.80
2019-03-09T03:49:09.859Z,2.00
2019-03-09T03:50:14.838Z,1.60
2019-03-09T03:51:19.656Z,1.70
2019-03-09T03:52:24.662Z,1.90
2019-03-09T03:53:30.049Z,1.90
2019-03-09T03:54:35.903Z,1.82
2019-03-09T03:55:41.019Z,1.70
2019-03-09T03:56:47.444Z,1.60
2019-03-09T03:57:53.149Z,1.60
2019-03-09T03:58:57.696Z,1.90
2019-03-09T04:00:03.002Z,1.77
2019-03-09T04:01:07.738Z,1.65
2019-03-09T04:02:12.712Z,1.75
2019-03-09T04:03:18.238Z,1.60
2019-03-09T04:04:23.221Z,1.50
2019-03-09T04:05:28.425Z,1.87
2019-03-09T04:06:34.087Z,1.98
2019-03-09T04:07:39.363Z,1.42
2019-03-09T04:08:44.693Z,1.30
2019-03-09T04:09:49.971Z,1.20
2019-03-09T04:10:55.633Z,1.45
2019-03-09T04:12:00.943Z,0.93
2019-03-09T04:13:05.939Z,1.25
2019-03-09T04:14:11.278Z,1.20
2019-03-09T04:15:16.247Z,1.30
2019-03-09T04:16:21.262Z,0.90
2019-03-09T04:17:26.001Z,1.20
2019-03-09T04:18:31.811Z,1.00
2019-03-09T04:19:37.082Z,1.10
2019-03-09T04:20:42.884Z,1.00
2019-03-09T04:21:48.565Z,1.10
2019-03-09T04:22:53.729Z,1.22
2019-03-09T04:23:58.420Z,1.00
2019-03-09T04:25:03.409Z,1.10
2019-03-09T04:26:09.015Z,0.88
2019-03-09T04:27:13.728Z,0.80
2019-03-09T04:28:18.715Z,1.20
2019-03-09T04:29:23.694Z,1.02
2019-03-09T04:30:28.738Z,1.45
2019-03-09T04:31:36.998Z,1.30
2019-03-09T04:32:42.300Z,1.10
2019-03-09T04:33:47.554Z,1.20
2019-03-09T04:34:52.308Z,1.20
2019-03-09T04:35:56.990Z,0.90
2019-03-09T04:37:02.729Z,1.10
2019-03-09T04:38:07.396Z,1.07
2019-03-09T04:39:12.637Z,1.20
2019-03-09T04:40:17.247Z,0.90
2019-03-09T04:41:22.245Z,1.12
2019-03-09T04:42:27.101Z,1.20
2019-03-09T04:43:32.177Z,1.20
2019-03-09T04:44:36.970Z,1.20
2019-03-09T04:45:41.977Z,1.25
2019-03-09T04:46:47.304Z,1.10
2019-03-09T04:47:52.536Z,1.20
2019-03-09T04:48:57.519Z,1.22
2019-03-09T04:50:02.043Z,1.57
2019-03-09T04:51:06.743Z,1.30
2019-03-09T04:52:11.987Z,1.32
2019-03-09T04:53:17.251Z,1.50
2019-03-09T04:54:22.223Z,1.55
2019-03-09T04:55:27.497Z,1.27
2019-03-09T04:56:32.373Z,1.32
2019-03-09T04:57:37.379Z,1.42
2019-03-09T04:58:42.631Z,1.40
2019-03-09T04:59:47.941Z,1.70
2019-03-09T05:00:52.974Z,1.50
2019-03-09T05:01:58.036Z,1.40
2019-03-09T05:03:03.382Z,1.57
2019-03-09T05:04:51.250Z,1.55
2019-03-09T05:05:56.267Z,1.65
2019-03-09T05:07:01.569Z,2.12
2019-03-09T05:08:27.314Z,1.55
2019-03-09T05:10:00.299Z,1.80
2019-03-09T05:11:15.281Z,1.62
2019-03-09T05:12:20.243Z,1.62
2019-03-09T05:13:33.858Z,1.65
2019-03-09T05:14:38.586Z,1.70
2019-03-09T05:15:44.191Z,1.95
2019-03-09T05:16:49.316Z,1.72
2019-03-09T05:17:54.621Z,1.92
2019-03-09T05:20:18.688Z,2.00
2019-03-09T05:21:23.381Z,2.12
2019-03-09T05:22:28.406Z,2.90
2019-03-09T05:23:33.600Z,2.30
2019-03-09T05:24:39.212Z,2.30
2019-03-09T05:25:44.233Z,2.20
2019-03-09T05:26:48.950Z,2.08
2019-03-09T05:27:54.491Z,2.33
2019-03-09T05:28:59.927Z,2.40
2019-03-09T05:30:05.236Z,2.50
2019-03-09T05:31:10.238Z,2.60
2019-03-09T05:32:15.725Z,2.62
2019-03-09T05:33:20.751Z,2.30
2019-03-09T05:34:26.317Z,2.40
2019-03-09T05:35:31.047Z,2.52
2019-03-09T05:36:39.352Z,2.95
2019-03-09T05:37:44.098Z,2.80
2019-03-09T05:38:48.859Z,3.00
2019-03-09T05:39:53.646Z,2.77
2019-03-09T05:40:58.932Z,3.22
2019-03-09T05:42:03.614Z,3.17
2019-03-09T05:43:08.865Z,3.20
2019-03-09T05:44:14.245Z,3.50
2019-03-09T05:45:19.195Z,3.65
2019-03-09T05:46:24.386Z,3.60
2019-03-09T05:47:29.971Z,3.12
2019-03-09T05:48:34.964Z,3.50
2019-03-09T05:49:39.965Z,3.80
2019-03-09T05:50:45.236Z,3.67
2019-03-09T05:52:33.145Z,3.62
2019-03-09T05:53:38.413Z,4.00
2019-03-09T05:54:43.384Z,3.95
2019-03-09T05:55:48.367Z,3.83
2019-03-09T05:56:53.140Z,4.08
2019-03-09T05:57:58.176Z,3.98
2019-03-09T05:59:03.215Z,4.10
2019-03-09T06:00:08.550Z,3.95
2019-03-09T06:01:13.317Z,3.98
2019-03-09T06:02:18.034Z,3.80
2019-03-09T06:03:23.298Z,4.40
2019-03-09T06:04:28.565Z,4.15
2019-03-09T06:05:38.240Z,4.65
2019-03-09T06:06:43.553Z,4.20
2019-03-09T06:07:48.768Z,3.98
2019-03-09T06:08:53.562Z,4.17
2019-03-09T06:09:58.281Z,4.30
2019-03-09T06:11:03.255Z,3.85
2019-03-09T06:12:08.825Z,3.75
2019-03-09T06:13:13.535Z,4.10
2019-03-09T06:14:18.558Z,3.52
2019-03-09T06:15:23.289Z,4.15
2019-03-09T06:16:28.670Z,4.20
2019-03-09T06:17:34.009Z,4.12
2019-03-09T06:18:39.291Z,4.22
2019-03-09T06:19:44.263Z,4.15
2019-03-09T06:20:49.262Z,4.22
2019-03-09T06:21:54.960Z,4.28
2019-03-09T06:23:00.172Z,4.30
2019-03-09T06:24:05.134Z,4.50
2019-03-09T06:25:10.591Z,4.33
2019-03-09T06:26:15.878Z,4.10
2019-03-09T06:27:21.277Z,4.05
2019-03-09T06:28:26.375Z,4.80
2019-03-09T06:29:31.707Z,4.45
2019-03-09T06:30:36.981Z,4.45
2019-03-09T06:31:46.105Z,4.08
2019-03-09T06:33:18.779Z,4.03
2019-03-09T06:34:23.770Z,3.77
2019-03-09T06:35:29.075Z,4.10
2019-03-09T06:37:06.873Z,3.83
2019-03-09T06:38:44.110Z,3.80
2019-03-09T06:39:51.450Z,3.92
2019-03-09T06:41:02.996Z,3.98
2019-03-09T06:42:38.412Z,4.20
2019-03-09T06:43:43.989Z,3.90
2019-03-09T06:44:48.961Z,4.53
2019-03-09T06:45:54.232Z,3.87
2019-03-09T06:46:59.192Z,3.80
2019-03-09T06:48:03.650Z,3.90
2019-03-09T06:49:08.883Z,3.77
2019-03-09T06:50:15.599Z,4.03
2019-03-09T06:51:20.880Z,4.10
2019-03-09T06:52:25.817Z,3.90
2019-03-09T06:53:33.806Z,3.58
2019-03-09T06:54:38.748Z,3.92
2019-03-09T06:55:43.439Z,3.90
2019-03-09T06:56:48.679Z,3.70
2019-03-09T06:57:53.366Z,3.87
2019-03-09T06:58:58.101Z,3.70
2019-03-09T07:00:07.086Z,3.85
2019-03-09T07:01:20.375Z,3.98
2019-03-09T07:02:25.651Z,4.12
2019-03-09T07:03:31.297Z,4.28
2019-03-09T07:04:36.248Z,3.77
2019-03-09T07:05:41.527Z,4.15
2019-03-09T07:06:46.809Z,3.80
2019-03-09T07:07:52.089Z,4.55
2019-03-09T07:08:57.094Z,3.62
2019-03-09T07:10:02.415Z,4.25
2019-03-09T07:11:07.747Z,3.62
2019-03-09T07:12:12.760Z,3.80
2019-03-09T07:13:17.801Z,4.83
2019-03-09T07:14:58.352Z,3.95
2019-03-09T07:16:03.590Z,4.30
2019-03-09T07:17:08.037Z,4.10
2019-03-09T07:18:24.018Z,3.60
2019-03-09T07:19:28.451Z,4.00
2019-03-09T07:20:35.153Z,4.08
2019-03-09T07:21:40.167Z,4.28
2019-03-09T07:22:45.228Z,3.90
2019-03-09T07:23:49.927Z,4.53
2019-03-09T07:24:54.381Z,4.40
2019-03-09T07:25:59.053Z,5.08
2019-03-09T07:27:04.085Z,4.15
2019-03-09T07:28:10.537Z,4.45
2019-03-09T07:29:15.508Z,4.28
2019-03-09T07:30:20.237Z,4.12
2019-03-09T07:31:25.181Z,4.75
2019-03-09T07:32:29.949Z,4.65
2019-03-09T07:33:35.206Z,4.35
2019-03-09T07:34:40.489Z,3.95
2019-03-09T07:35:45.336Z,4.12
2019-03-09T07:36:50.100Z,4.33
2019-03-09T07:37:55.369Z,4.90
2019-03-09T07:39:00.085Z,4.45
2019-03-09T07:40:04.960Z,4.83
2019-03-09T07:41:10.230Z,4.90
2019-03-09T07:42:15.212Z,4.65
2019-03-09T07:43:20.782Z,4.85
2019-03-09T07:44:26.029Z,4.87
2019-03-09T07:45:31.037Z,4.30
2019-03-09T07:46:35.729Z,4.35
2019-03-09T07:47:40.422Z,3.72
2019-03-09T07:48:45.381Z,4.17
2019-03-09T07:49:50.320Z,4.45
2019-03-09T07:50:55.272Z,4.58
2019-03-09T07:52:00.891Z,4.22
2019-03-09T07:53:05.619Z,4.37
2019-03-09T07:54:10.606Z,4.12
2019-03-09T07:55:15.566Z,4.47
2019-03-09T07:56:20.862Z,4.08
2019-03-09T07:57:25.877Z,4.92
2019-03-09T07:58:30.927Z,4.45
2019-03-09T07:59:36.208Z,4.53
2019-03-09T08:00:41.012Z,4.20
2019-03-09T08:01:45.955Z,4.30
2019-03-09T08:02:51.194Z,4.35
2019-03-09T08:03:56.200Z,4.20
2019-03-09T08:05:01.241Z,4.25
2019-03-09T08:06:05.975Z,4.05
2019-03-09T08:07:11.328Z,4.20
2019-03-09T08:08:16.363Z,4.15
2019-03-09T08:09:21.654Z,4.22
2019-03-09T08:10:26.468Z,4.20
2019-03-09T08:11:32.223Z,4.50
2019-03-09T08:12:37.304Z,3.83
2019-03-09T08:13:42.579Z,4.05
2019-03-09T08:14:47.308Z,3.60
2019-03-09T08:15:52.673Z,3.95
2019-03-09T08:16:57.677Z,3.72
2019-03-09T08:18:02.710Z,4.40
2019-03-09T08:19:07.716Z,3.83
2019-03-09T08:20:12.186Z,4.33
2019-03-09T08:21:17.458Z,3.55
2019-03-09T08:22:22.073Z,3.72
2019-03-09T08:23:27.135Z,3.75
2019-03-09T08:24:32.168Z,3.45
2019-03-09T08:25:37.457Z,3.80
2019-03-09T08:26:42.184Z,4.28
2019-03-09T08:27:46.963Z,2.95
2019-03-09T08:28:52.014Z,3.37
2019-03-09T08:29:57.001Z,3.62
2019-03-09T08:31:02.243Z,2.95
2019-03-09T08:32:07.223Z,3.37
2019-03-09T08:33:12.452Z,3.60
2019-03-09T08:34:17.460Z,3.17
2019-03-09T08:35:22.704Z,3.30
2019-03-09T08:36:27.811Z,3.25
2019-03-09T08:37:33.412Z,2.95
2019-03-09T08:38:38.127Z,3.33
2019-03-09T08:39:43.663Z,3.27
2019-03-09T08:40:48.659Z,3.62
2019-03-09T08:41:53.667Z,2.85
2019-03-09T08:42:58.951Z,2.98
2019-03-09T08:44:03.785Z,2.70
2019-03-09T08:45:09.093Z,3.08
2019-03-09T08:46:13.861Z,3.20
2019-03-09T08:47:18.833Z,2.98
2019-03-09T08:48:23.555Z,3.25
2019-03-09T08:49:29.095Z,3.58
2019-03-09T08:50:34.221Z,2.95
2019-03-09T08:51:39.444Z,2.80
2019-03-09T08:52:44.336Z,3.05
2019-03-09T08:53:49.085Z,2.67
2019-03-09T08:54:54.034Z,2.80
2019-03-09T08:55:59.281Z,3.25
2019-03-09T08:57:04.039Z,2.85
2019-03-09T08:58:08.984Z,2.37
2019-03-09T08:59:13.798Z,2.67
2019-03-09T09:00:23.682Z,3.00
2019-03-09T09:01:28.404Z,2.98
2019-03-09T09:02:33.071Z,2.42
2019-03-09T09:03:38.744Z,2.87
2019-03-09T09:04:44.059Z,3.10
2019-03-09T09:05:58.172Z,2.60
2019-03-09T09:07:03.458Z,2.52
2019-03-09T09:08:08.598Z,3.12
2019-03-09T09:09:13.566Z,2.85
2019-03-09T09:10:18.277Z,2.40
2019-03-09T09:11:23.213Z,2.30
2019-03-09T09:12:27.889Z,2.65
2019-03-09T09:13:33.321Z,2.60
2019-03-09T09:14:38.334Z,2.62
2019-03-09T09:15:43.632Z,2.40
2019-03-09T09:16:48.853Z,3.20
2019-03-09T09:17:53.527Z,2.35
2019-03-09T09:18:58.198Z,2.62
2019-03-09T09:20:03.484Z,2.05
2019-03-09T09:21:08.480Z,2.52
2019-03-09T09:22:13.789Z,2.90
2019-03-09T09:23:18.223Z,2.50
2019-03-09T09:24:23.497Z,2.40
2019-03-09T09:25:28.280Z,2.37
2019-03-09T09:26:33.274Z,2.45
2019-03-09T09:27:38.015Z,2.15
2019-03-09T09:28:43.030Z,3.02
2019-03-09T09:29:47.513Z,2.55
2019-03-09T09:30:52.234Z,2.80
2019-03-09T09:31:58.140Z,2.65
2019-03-09T09:33:03.499Z,2.58
2019-03-09T09:34:07.971Z,2.37
2019-03-09T09:35:12.981Z,2.67
2019-03-09T09:36:18.582Z,2.47
2019-03-09T09:37:23.602Z,2.30
2019-03-09T09:38:28.347Z,2.62
2019-03-09T09:39:33.809Z,2.87
2019-03-09T09:40:38.802Z,2.30
2019-03-09T09:41:43.508Z,2.50
2019-03-09T09:42:48.806Z,2.98
2019-03-09T09:43:54.625Z,2.40
2019-03-09T09:44:59.697Z,2.50
2019-03-09T09:46:04.438Z,2.55
2019-03-09T09:47:09.655Z,2.35
2019-03-09T09:48:14.930Z,2.30
2019-03-09T09:49:20.513Z,2.15
2019-03-09T09:50:25.565Z,2.65
2019-03-09T09:51:30.568Z,2.27
2019-03-09T09:52:35.585Z,2.25
2019-03-09T09:53:40.917Z,2.17
2019-03-09T09:54:45.651Z,2.50
2019-03-09T09:55:50.325Z,2.45
2019-03-09T09:56:55.338Z,2.42
2019-03-09T09:58:00.087Z,2.87
2019-03-09T09:59:04.810Z,2.25
2019-03-09T10:00:13.283Z,2.50
2019-03-09T10:01:18.240Z,2.50
2019-03-09T10:02:23.257Z,2.42
2019-03-09T10:03:27.936Z,2.60
2019-03-09T10:04:33.980Z,2.90
2019-03-09T10:05:38.677Z,2.55
2019-03-09T10:06:43.356Z,2.72
2019-03-09T10:07:48.053Z,2.70
2019-03-09T10:08:53.315Z,2.45
2019-03-09T10:09:58.631Z,2.60
2019-03-09T10:11:04.091Z,2.87
2019-03-09T10:12:08.793Z,2.92
2019-03-09T10:13:13.759Z,2.67
2019-03-09T10:14:19.397Z,2.55
2019-03-09T10:15:25.609Z,2.27
2019-03-09T10:16:31.673Z,2.40
2019-03-09T10:17:36.356Z,2.45
2019-03-09T10:18:41.301Z,2.60
2019-03-09T10:19:46.034Z,2.58
2019-03-09T10:20:51.273Z,2.40
2019-03-09T10:21:56.550Z,2.50
2019-03-09T10:23:04.713Z,2.45
2019-03-09T10:24:08.761Z,2.10
2019-03-09T10:25:14.766Z,2.47
2019-03-09T10:26:19.488Z,2.70
2019-03-09T10:27:24.752Z,2.10
2019-03-09T10:28:29.744Z,2.08
2019-03-09T10:29:35.253Z,2.20
2019-03-09T10:30:40.678Z,2.22
2019-03-09T10:31:45.789Z,2.47
2019-03-09T10:32:51.156Z,2.50
2019-03-09T10:33:56.396Z,1.92
2019-03-09T10:35:01.378Z,2.12
2019-03-09T10:36:06.616Z,2.17
2019-03-09T10:37:12.025Z,2.55
2019-03-09T10:38:17.297Z,2.20
2019-03-09T10:39:22.286Z,2.17
2019-03-09T10:40:26.731Z,2.42
2019-03-09T10:41:32.135Z,2.33
2019-03-09T10:42:37.457Z,1.98
2019-03-09T10:43:42.798Z,2.20
2019-03-09T10:44:47.255Z,2.05
2019-03-09T10:45:52.506Z,2.27
2019-03-09T10:46:57.788Z,2.20
2019-03-09T10:48:04.555Z,2.25
2019-03-09T10:49:09.863Z,2.20
2019-03-09T10:50:15.013Z,2.33
2019-03-09T10:51:19.988Z,2.00
2019-03-09T10:52:24.708Z,2.10
2019-03-09T10:53:29.952Z,2.00
2019-03-09T10:54:36.181Z,2.27
2019-03-09T10:55:42.666Z,2.00
2019-03-09T10:56:48.254Z,2.40
2019-03-09T10:57:53.227Z,2.00
2019-03-09T10:58:58.216Z,1.77
2019-03-09T11:00:03.540Z,1.80
2019-03-09T11:01:09.615Z,2.17
2019-03-09T11:02:14.706Z,1.52
2019-03-09T11:03:19.998Z,1.30
2019-03-09T11:04:27.842Z,2.10
2019-03-09T11:05:31.776Z,2.05
2019-03-09T11:06:36.752Z,1.82
2019-03-09T11:07:41.719Z,2.15
2019-03-09T11:08:46.960Z,1.85
2019-03-09T11:09:51.635Z,2.50
2019-03-09T11:10:56.110Z,2.60
2019-03-09T11:12:01.161Z,1.50
2019-03-09T11:13:05.997Z,2.10
2019-03-09T11:14:11.252Z,1.82
2019-03-09T11:15:16.382Z,1.60
2019-03-09T11:16:21.105Z,1.75
2019-03-09T11:17:26.457Z,1.70
2019-03-09T11:18:31.858Z,1.80
2019-03-09T11:19:36.460Z,1.70
2019-03-09T11:20:41.413Z,1.72
2019-03-09T11:21:46.573Z,2.00
2019-03-09T11:22:51.810Z,1.90
2019-03-09T11:23:57.087Z,1.52
2019-03-09T11:25:03.671Z,2.17
2019-03-09T11:26:08.533Z,1.90
2019-03-09T11:27:13.505Z,1.77
2019-03-09T11:28:18.489Z,1.80
2019-03-09T11:29:23.174Z,1.50
2019-03-09T11:30:28.236Z,1.87
2019-03-09T11:31:33.271Z,1.87
2019-03-09T11:32:38.261Z,1.40
2019-03-09T11:33:43.507Z,1.70
2019-03-09T11:34:48.781Z,1.60
2019-03-09T11:35:53.813Z,1.32
2019-03-09T11:36:58.754Z,1.57
2019-03-09T11:38:04.105Z,1.40
2019-03-09T11:39:09.300Z,1.30
2019-03-09T11:40:14.825Z,1.40
2019-03-09T11:41:19.834Z,1.30
2019-03-09T11:42:24.972Z,1.30
2019-03-09T11:43:29.654Z,1.40
2019-03-09T11:44:35.113Z,1.82
2019-03-09T11:45:40.170Z,1.42
2019-03-09T11:46:45.143Z,1.50
2019-03-09T11:47:50.162Z,1.30
2019-03-09T11:48:55.228Z,1.52
2019-03-09T11:50:00.400Z,1.37
2019-03-09T11:51:05.356Z,1.40
2019-03-09T11:52:19.477Z,1.52
2019-03-09T11:53:16.797Z,1.25
2019-03-09T11:54:22.078Z,1.40
2019-03-09T11:55:26.893Z,1.40
2019-03-09T11:56:31.438Z,1.40
2019-03-09T11:57:36.970Z,1.42
2019-03-09T11:58:42.265Z,1.35
2019-03-09T11:59:47.267Z,1.30
2019-03-09T12:00:52.294Z,1.30
2019-03-09T12:01:57.569Z,1.20
2019-03-09T12:03:02.327Z,1.42
2019-03-09T12:04:07.038Z,1.37
2019-03-09T12:05:12.428Z,1.50
2019-03-09T12:06:17.665Z,1.20
2019-03-09T12:07:22.342Z,1.45
2019-03-09T12:08:27.695Z,1.52
2019-03-09T12:09:32.372Z,1.20
2019-03-09T12:10:37.351Z,1.70
2019-03-09T12:11:43.828Z,1.40
2019-03-09T12:12:49.924Z,1.60
2019-03-09T12:13:54.886Z,1.55
2019-03-09T12:14:59.866Z,1.72
2019-03-09T12:16:04.883Z,1.40
2019-03-09T12:17:12.337Z,1.55
2019-03-09T12:18:16.371Z,1.50
2019-03-09T12:19:21.058Z,1.32
2019-03-09T12:20:27.756Z,1.42
2019-03-09T12:21:33.102Z,1.42
2019-03-09T12:22:37.943Z,1.17
2019-03-09T12:23:43.025Z,1.72
2019-03-09T12:24:51.897Z,1.32
2019-03-09T12:25:56.395Z,1.27
2019-03-09T12:27:01.474Z,1.40
2019-03-09T12:28:06.477Z,1.87
2019-03-09T12:29:11.446Z,1.55
2019-03-09T12:30:17.043Z,1.60
2019-03-09T12:31:22.030Z,1.47
2019-03-09T12:32:26.711Z,1.52
2019-03-09T12:33:31.737Z,1.70
2019-03-09T12:34:37.011Z,1.80
2019-03-09T12:35:44.067Z,1.50
2019-03-09T12:36:48.678Z,1.90
2019-03-09T12:37:54.157Z,1.42
2019-03-09T12:38:59.178Z,1.37
2019-03-09T12:40:03.910Z,2.05
2019-03-09T12:41:08.942Z,1.60
2019-03-09T12:42:14.301Z,1.85
2019-03-09T12:43:19.001Z,1.70
2019-03-09T12:44:24.564Z,1.50
2019-03-09T12:45:29.613Z,1.70
2019-03-09T12:46:34.692Z,1.80
2019-03-09T12:47:39.384Z,1.77
2019-03-09T12:48:44.402Z,1.50
2019-03-09T12:49:49.119Z,1.50
2019-03-09T12:50:54.110Z,1.75
2019-03-09T12:51:58.865Z,1.80
2019-03-09T12:53:04.232Z,1.87
2019-03-09T12:54:08.948Z,2.12
2019-03-09T12:55:14.810Z,1.82
2019-03-09T12:56:20.333Z,1.80
2019-03-09T12:57:25.370Z,1.52
2019-03-09T12:58:30.100Z,1.70
2019-03-09T12:59:35.650Z,2.12
2019-03-09T13:00:40.138Z,1.60
2019-03-09T13:01:45.397Z,1.87
2019-03-09T13:02:50.382Z,1.85
2019-03-09T13:03:55.511Z,2.05
2019-03-09T13:05:00.954Z,1.70
2019-03-09T13:06:05.650Z,1.85
2019-03-09T13:07:10.937Z,1.80
2019-03-09T13:08:15.458Z,1.70
2019-03-09T13:09:20.140Z,1.87
2019-03-09T13:10:24.864Z,1.90
2019-03-09T13:11:30.000Z,2.08
2019-03-09T13:12:35.198Z,1.70
2019-03-09T13:13:39.695Z,1.75
2019-03-09T13:14:44.371Z,2.37
2019-03-09T13:15:49.655Z,1.75
2019-03-09T13:16:54.408Z,2.12
2019-03-09T13:17:59.689Z,2.22
2019-03-09T13:19:04.407Z,2.17
2019-03-09T13:20:09.441Z,2.30
2019-03-09T13:21:14.666Z,2.47
2019-03-09T13:22:19.664Z,1.80
2019-03-09T13:23:24.631Z,3.08
2019-03-09T13:24:29.689Z,2.55
2019-03-09T13:25:34.494Z,2.70
2019-03-09T13:26:39.582Z,2.70
2019-03-09T13:27:44.564Z,2.87
2019-03-09T13:28:49.583Z,3.17
2019-03-09T13:29:54.741Z,3.80
2019-03-09T13:31:00.296Z,3.22
2019-03-09T13:32:05.256Z,3.15
2019-03-09T13:33:09.942Z,3.40
2019-03-09T13:34:14.887Z,3.52
2019-03-09T13:35:19.754Z,3.85
2019-03-09T13:36:24.513Z,3.10
2019-03-09T13:37:28.979Z,3.33
2019-03-09T13:38:34.526Z,3.60
2019-03-09T13:39:39.201Z,3.37
2019-03-09T13:40:44.175Z,3.67
2019-03-09T13:41:49.178Z,3.47
2019-03-09T13:42:53.949Z,2.75
2019-03-09T13:43:59.196Z,3.55
2019-03-09T13:45:04.172Z,3.80
2019-03-09T13:46:09.541Z,3.47
2019-03-09T13:47:14.489Z,3.77
2019-03-09T13:48:19.647Z,3.15
2019-03-09T13:49:24.610Z,3.85
2019-03-09T13:50:30.049Z,2.70
2019-03-09T13:51:34.716Z,3.40
2019-03-09T13:52:39.656Z,3.02
2019-03-09T13:53:44.912Z,3.67
2019-03-09T13:54:50.329Z,3.60
2019-03-09T13:55:55.103Z,3.52
2019-03-09T13:56:59.837Z,3.12
2019-03-09T13:58:04.538Z,3.60
2019-03-09T13:59:09.307Z,4.15
2019-03-09T14:00:15.236Z,3.75
2019-03-09T14:01:20.550Z,3.60
2019-03-09T14:02:25.542Z,3.35
2019-03-09T14:03:30.601Z,3.40
2019-03-09T14:04:35.884Z,3.50
2019-03-09T14:05:41.456Z,3.70
2019-03-09T14:06:45.922Z,3.55
2019-03-09T14:07:51.204Z,3.77
2019-03-09T14:08:56.206Z,3.58
2019-03-09T14:10:00.984Z,3.87
2019-03-09T14:11:05.947Z,4.00
2019-03-09T14:12:10.676Z,4.45
2019-03-09T14:13:15.697Z,3.20
2019-03-09T14:14:20.979Z,4.15
2019-03-09T14:15:26.507Z,4.25
2019-03-09T14:16:32.077Z,3.27
2019-03-09T14:17:36.788Z,4.60
2019-03-09T14:18:41.823Z,3.92
2019-03-09T14:19:47.127Z,3.58
2019-03-09T14:20:52.098Z,3.47
2019-03-09T14:21:57.385Z,3.10
2019-03-09T14:23:02.654Z,4.62
2019-03-09T14:24:07.337Z,4.08
2019-03-09T14:25:12.100Z,4.00
2019-03-09T14:26:17.376Z,4.25
2019-03-09T14:27:22.119Z,4.00
2019-03-09T14:28:27.910Z,4.05
2019-03-09T14:29:33.004Z,4.05
2019-03-09T14:30:38.036Z,3.60
2019-03-09T14:31:43.380Z,3.75
2019-03-09T14:32:48.381Z,4.08
2019-03-09T14:33:53.525Z,4.20
2019-03-09T14:34:58.205Z,4.42
2019-03-09T14:36:02.644Z,3.80
2019-03-09T14:37:07.148Z,4.75